Time;durP1;ratioP1;P1;durP2;ratioP2;P2;SDS_P1;SDS_P2;PMS_P1;PMS_P2;Temp;Humidity;BMP_temperature;BMP_pressure;BME280_temperature;BME280_humidity;BME280_pressure;Samples;Min_cycle;Max_cycle;Signal;HPM_P1;HPM_P2
2022/03/04 00:03:50;;;;;;;34.67;26.40;;;10.20;73.60;;;;;;10944773;32;20027;-73
2022/03/04 00:09:52;;;;;;;17.30;13.45;;;10.20;73.70;;;;;;10944318;32;20373;-72
2022/03/04 00:16:07;;;;;;;20.05;14.20;;;10.00;73.80;;;;;;10942655;32;20054;-73
2022/03/04 00:22:09;;;;;;;20.15;14.73;;;10.00;74.10;;;;;;10944534;32;20023;-71
2022/03/04 00:28:11;;;;;;;21.00;16.20;;;10.00;74.10;;;;;;10944082;32;20027;-71
2022/03/04 00:34:13;;;;;;;16.10;12.00;;;10.10;74.00;;;;;;10943831;32;20057;-71
2022/03/04 00:40:15;;;;;;;22.00;15.00;;;10.10;73.80;;;;;;10943892;32;20292;-71
2022/03/04 00:46:18;;;;;;;31.25;22.27;;;10.20;74.00;;;;;;10938531;32;20051;-71
2022/03/04 00:52:20;;;;;;;23.70;17.62;;;10.30;73.60;;;;;;10943616;32;20030;-71
2022/03/04 00:58:22;;;;;;;22.08;14.25;;;10.40;73.50;;;;;;10929765;32;20354;-71
2022/03/04 01:04:24;;;;;;;27.50;20.40;;;10.30;73.30;;;;;;10942999;32;20049;-71
2022/03/04 01:10:27;;;;;;;24.10;16.60;;;10.30;73.40;;;;;;10938237;32;20027;-71
2022/03/04 01:16:29;;;;;;;19.15;13.75;;;10.20;73.30;;;;;;10929236;32;20042;-71
2022/03/04 01:22:31;;;;;;;26.85;18.25;;;10.00;73.50;;;;;;10929309;32;20022;-71
2022/03/04 01:28:33;;;;;;;25.90;20.90;;;10.00;74.00;;;;;;10942455;32;20054;-71
2022/03/04 01:34:35;;;;;;;18.35;14.48;;;10.00;74.00;;;;;;10942400;32;20019;-71
2022/03/04 01:40:37;;;;;;;22.75;16.30;;;9.90;74.10;;;;;;10942285;32;20443;-71
2022/03/04 01:46:39;;;;;;;23.92;16.87;;;9.90;74.40;;;;;;10942433;32;20292;-71
2022/03/04 01:52:41;;;;;;;21.00;14.68;;;9.80;74.40;;;;;;10942029;32;20027;-71
2022/03/04 01:58:44;;;;;;;26.83;17.73;;;9.60;74.60;;;;;;10947975;32;20011;-72
2022/03/04 02:04:48;;;;;;;24.80;16.75;;;9.50;74.80;;;;;;10949451;32;20015;-72
2022/03/04 02:10:50;;;;;;;30.60;20.75;;;9.60;74.80;;;;;;10949156;32;20023;-71
2022/03/04 02:16:55;;;;;;;33.40;24.83;;;9.60;74.70;;;;;;10948668;32;20027;-71
2022/03/04 02:23:00;;;;;;;26.83;17.35;;;9.60;74.70;;;;;;10948557;32;20055;-71
2022/03/04 02:29:02;;;;;;;24.23;16.52;;;9.60;74.40;;;;;;10948326;32;20425;-71
2022/03/04 02:35:05;;;;;;;24.08;15.35;;;9.60;74.30;;;;;;10944525;32;20030;-71
2022/03/04 02:41:07;;;;;;;22.85;16.45;;;9.50;74.30;;;;;;10948118;32;20059;-71
2022/03/04 02:47:09;;;;;;;32.85;21.67;;;9.30;74.30;;;;;;10947741;32;20020;-71
2022/03/04 02:53:12;;;;;;;26.17;18.45;;;9.20;74.40;;;;;;10934119;32;20027;-72
2022/03/04 02:59:14;;;;;;;23.62;17.15;;;9.20;74.40;;;;;;10947610;32;20019;-72
2022/03/04 03:05:16;;;;;;;32.85;22.25;;;9.20;74.60;;;;;;10947327;32;20019;-72
2022/03/04 03:11:18;;;;;;;27.40;18.73;;;9.20;74.80;;;;;;10946186;32;20066;-71
2022/03/04 03:17:20;;;;;;;33.47;23.62;;;9.10;75.40;;;;;;10946766;32;20019;-73
2022/03/04 03:23:22;;;;;;;23.10;16.30;;;9.10;75.30;;;;;;10946139;32;20045;-72
2022/03/04 03:29:24;;;;;;;29.67;20.25;;;9.00;75.00;;;;;;10945877;32;20027;-73
2022/03/04 03:35:38;;;;;;;26.10;18.52;;;8.90;74.90;;;;;;10945759;32;20037;-72
2022/03/04 03:41:40;;;;;;;27.30;18.87;;;8.80;74.70;;;;;;10944831;32;20339;-72
2022/03/04 03:47:43;;;;;;;24.33;17.12;;;8.70;74.60;;;;;;10944985;32;20402;-72
2022/03/04 03:53:47;;;;;;;26.52;19.87;;;8.60;74.70;;;;;;10945073;32;20061;-72
2022/03/04 03:59:49;;;;;;;24.92;16.08;;;8.60;74.60;;;;;;10944815;32;20045;-73
2022/03/04 04:05:51;;;;;;;21.48;16.25;;;8.50;74.50;;;;;;10944714;32;20022;-72
2022/03/04 04:11:53;;;;;;;26.23;18.60;;;8.50;74.50;;;;;;10930766;32;20027;-72
2022/03/04 04:17:55;;;;;;;24.85;17.92;;;8.40;74.50;;;;;;10944025;32;20031;-72
2022/03/04 04:23:57;;;;;;;35.72;24.63;;;8.40;75.00;;;;;;10944051;32;20085;-72
2022/03/04 04:30:00;;;;;;;33.85;22.70;;;8.40;75.60;;;;;;10943800;32;20049;-72
2022/03/04 04:36:03;;;;;;;30.95;21.87;;;8.30;75.10;;;;;;10943558;32;20068;-72
2022/03/04 04:42:06;;;;;;;24.85;16.02;;;8.30;74.80;;;;;;10943350;32;20323;-72
2022/03/04 04:48:09;;;;;;;25.92;19.85;;;8.20;74.70;;;;;;10929599;32;20050;-72
2022/03/04 04:54:11;;;;;;;24.23;16.25;;;8.10;74.70;;;;;;10942949;32;20342;-72
2022/03/04 05:00:14;;;;;;;23.60;14.38;;;8.10;74.60;;;;;;10942779;32;20026;-72
2022/03/04 05:06:48;;;;;;;22.62;15.13;;;8.00;74.50;;;;;;10942624;32;20066;-72
2022/03/04 05:12:50;;;;;;;22.60;14.65;;;8.00;74.50;;;;;;10941494;32;20296;-72
2022/03/04 05:19:40;;;;;;;22.77;12.73;;;7.90;74.50;;;;;;10933815;27;20065;-72
2022/03/04 05:25:42;;;;;;;18.95;12.57;;;7.90;74.40;;;;;;10753547;32;20393;-72
2022/03/04 05:31:44;;;;;;;29.23;22.52;;;7.90;74.30;;;;;;10751960;32;20047;-72
2022/03/04 05:37:46;;;;;;;26.17;16.00;;;7.90;74.50;;;;;;10752368;33;20025;-72
2022/03/04 05:43:48;;;;;;;29.58;20.70;;;8.00;74.40;;;;;;10753405;33;20416;-72
2022/03/04 05:49:51;;;;;;;28.67;19.27;;;8.10;74.30;;;;;;10753148;33;20055;-72
2022/03/04 05:55:53;;;;;;;22.98;16.00;;;8.20;74.20;;;;;;10752923;33;20048;-72
2022/03/04 06:01:55;;;;;;;24.10;15.52;;;8.20;73.90;;;;;;10896583;32;20023;-72
2022/03/04 06:07:57;;;;;;;33.55;20.88;;;8.10;73.80;;;;;;10941200;32;20019;-72
2022/03/04 06:13:59;;;;;;;32.78;23.52;;;8.10;73.80;;;;;;10941309;32;20035;-72
2022/03/04 06:20:02;;;;;;;28.35;17.45;;;8.20;73.50;;;;;;10940980;32;20015;-72
2022/03/04 06:26:05;;;;;;;27.02;17.02;;;8.30;73.20;;;;;;10941018;32;20015;-72
2022/03/04 06:32:07;;;;;;;26.45;19.35;;;8.40;73.20;;;;;;10940944;32;20050;-73
2022/03/04 06:38:10;;;;;;;32.20;19.65;;;8.50;73.00;;;;;;10940726;32;20046;-73
2022/03/04 06:44:12;;;;;;;29.12;19.48;;;8.50;72.90;;;;;;10940814;32;20022;-73
2022/03/04 06:50:15;;;;;;;28.92;20.05;;;8.50;73.20;;;;;;10947273;32;20023;-73
2022/03/04 06:56:18;;;;;;;23.73;16.02;;;8.60;73.30;;;;;;10933104;32;20019;-73
2022/03/04 07:02:20;;;;;;;27.37;18.48;;;8.70;73.20;;;;;;10945335;32;20031;-73
2022/03/04 07:08:22;;;;;;;29.87;21.92;;;8.90;73.20;;;;;;10946425;32;20022;-72
2022/03/04 07:14:25;;;;;;;28.08;19.25;;;9.10;73.30;;;;;;10944141;32;20057;-73
2022/03/04 07:20:27;;;;;;;28.98;20.67;;;9.20;73.30;;;;;;10942916;32;20061;-73
2022/03/04 07:26:29;;;;;;;24.35;16.27;;;9.30;73.30;;;;;;10941576;32;20043;-74
2022/03/04 07:32:32;;;;;;;26.17;18.10;;;9.20;73.60;;;;;;10915660;32;20053;-74
2022/03/04 07:38:34;;;;;;;24.55;15.95;;;9.30;74.10;;;;;;10894650;32;20042;-76
2022/03/04 07:44:36;;;;;;;25.25;17.12;;;9.40;73.60;;;;;;10904679;32;20053;-73
2022/03/04 07:50:38;;;;;;;20.58;13.80;;;9.50;73.50;;;;;;10909914;32;20066;-73
2022/03/04 07:56:40;;;;;;;16.90;10.88;;;9.50;74.00;;;;;;10917366;32;20351;-74
2022/03/04 08:02:43;;;;;;;13.32;9.73;;;9.80;73.80;;;;;;10924784;32;20027;-74
2022/03/04 08:08:45;;;;;;;16.83;11.77;;;9.70;74.00;;;;;;10902954;32;20046;-73
2022/03/04 08:14:47;;;;;;;24.45;18.00;;;9.80;74.30;;;;;;10906018;32;20039;-75
2022/03/04 08:21:14;;;;;;;19.48;13.57;;;9.80;73.60;;;;;;10906191;32;20019;-73
2022/03/04 08:34:50;;;;;;;14.70;10.65;;;9.80;73.00;;;;;;10718722;33;20063;-72
2022/03/04 08:40:52;;;;;;;14.18;9.02;;;9.90;73.80;;;;;;10717776;33;20025;-71
2022/03/04 08:46:54;;;;;;;21.92;14.98;;;10.00;73.40;;;;;;10716984;33;20029;-75
2022/03/04 08:52:56;;;;;;;17.02;11.98;;;10.20;73.40;;;;;;10716585;33;20060;-76
2022/03/04 08:59:02;;;;;;;18.95;13.55;;;10.00;70.40;;;;;;10713714;33;20033;-76
2022/03/04 09:05:05;;;;;;;18.75;12.70;;;9.90;71.00;;;;;;10716830;33;20024;-75
2022/03/04 09:11:07;;;;;;;25.98;13.15;;;10.00;72.20;;;;;;10870919;32;20030;-75
2022/03/04 09:17:09;;;;;;;23.05;13.75;;;10.00;70.50;;;;;;10890817;32;20081;-76
2022/03/04 09:23:12;;;;;;;19.23;11.32;;;10.00;69.90;;;;;;10904001;32;20019;-74
2022/03/04 09:29:15;;;;;;;17.12;12.18;;;10.20;71.40;;;;;;10903801;32;20336;-73
2022/03/04 09:35:18;;;;;;;17.25;13.27;;;10.20;70.10;;;;;;10903817;32;20061;-76
2022/03/04 09:41:21;;;;;;;16.65;11.45;;;10.30;68.80;;;;;;10899020;32;20042;-77
2022/03/04 09:47:24;;;;;;;19.73;14.75;;;10.20;66.90;;;;;;10941137;32;20410;-74
2022/03/04 09:53:27;;;;;;;19.35;12.18;;;10.20;67.20;;;;;;10941112;32;20054;-76
2022/03/04 09:59:29;;;;;;;19.33;12.57;;;10.40;68.40;;;;;;10927790;32;20076;-74
2022/03/04 10:05:32;;;;;;;19.77;14.57;;;10.60;68.20;;;;;;10940738;32;20019;-76
2022/03/04 10:11:39;;;;;;;19.65;13.43;;;10.70;66.80;;;;;;10940959;32;20413;-76
2022/03/04 10:17:56;;;;;;;19.42;11.02;;;10.90;66.10;;;;;;10943988;32;20027;-74
2022/03/04 10:24:08;;;;;;;17.70;14.18;;;11.10;66.90;;;;;;10947659;32;20085;-74
2022/03/04 10:30:44;;;;;;;20.90;12.45;;;11.40;65.90;;;;;;10947670;32;20335;-76
2022/03/04 10:36:55;;;;;;;17.40;9.25;;;11.70;64.80;;;;;;10795267;32;20029;-74
2022/03/04 10:43:05;;;;;;;30.73;11.55;;;11.90;63.60;;;;;;10793978;32;20066;-74
2022/03/04 10:49:07;;;;;;;15.35;9.20;;;11.90;64.10;;;;;;10793914;33;20446;-76
2022/03/04 10:55:09;;;;;;;12.80;8.18;;;12.00;64.40;;;;;;10793634;33;20091;-74
2022/03/04 11:01:18;;;;;;;14.00;10.10;;;11.90;63.10;;;;;;10794603;33;20025;-74
2022/03/04 11:07:21;;;;;;;13.10;8.68;;;11.90;61.70;;;;;;10794430;33;20036;-75
2022/03/04 11:13:26;;;;;;;17.50;11.52;;;12.20;62.20;;;;;;10924456;32;20035;-74
2022/03/04 11:19:43;;;;;;;13.40;9.23;;;12.30;58.30;;;;;;10929329;32;20080;-74
2022/03/04 11:25:59;;;;;;;14.60;9.48;;;12.40;56.80;;;;;;10946282;32;20019;-75
2022/03/04 11:32:11;;;;;;;14.80;10.13;;;12.70;57.90;;;;;;10931413;32;20069;-75
2022/03/04 11:38:13;;;;;;;14.87;8.60;;;12.90;56.20;;;;;;10944469;32;20031;-74
2022/03/04 11:44:21;;;;;;;13.38;8.88;;;13.20;56.00;;;;;;10945242;32;20057;-76
2022/03/04 11:50:29;;;;;;;13.62;10.13;;;13.40;53.30;;;;;;10933370;32;20035;-74
2022/03/04 11:56:53;;;;;;;18.37;10.48;;;13.40;53.60;;;;;;10906907;32;20028;-74
2022/03/04 12:02:57;;;;;;;13.60;8.90;;;13.30;51.20;;;;;;10906183;32;20019;-74
2022/03/04 12:09:27;;;;;;;15.15;9.25;;;13.30;52.00;;;;;;10892764;32;20394;-73
2022/03/04 12:15:31;;;;;;;20.40;11.45;;;13.60;50.70;;;;;;10805241;32;20505;-74
2022/03/04 12:21:37;;;;;;;12.35;9.25;;;13.60;51.90;;;;;;10826834;32;20519;-73
2022/03/04 12:27:42;;;;;;;19.45;10.70;;;13.60;49.50;;;;;;10828632;32;20055;-73
2022/03/04 12:33:47;;;;;;;15.05;10.40;;;13.70;50.60;;;;;;10828386;32;20043;-73
2022/03/04 12:39:51;;;;;;;10.95;7.15;;;13.70;51.00;;;;;;10828211;32;20490;-72
2022/03/04 12:45:56;;;;;;;13.77;9.77;;;13.80;51.20;;;;;;10827736;32;20046;-73
2022/03/04 12:52:29;;;;;;;14.65;9.00;;;14.00;51.00;;;;;;10911535;32;20387;-73
2022/03/04 12:58:47;;;;;;;19.73;11.48;;;14.10;49.90;;;;;;10905263;32;20023;-73
2022/03/04 13:05:00;;;;;;;16.02;10.98;;;14.00;50.30;;;;;;10904976;32;20063;-73
2022/03/04 13:18:05;;;;;;;15.88;10.77;;;14.10;50.30;;;;;;10450271;27;15904590;-72
2022/03/04 13:24:10;;;;;;;15.18;11.48;;;14.10;49.20;;;;;;10931626;32;20558;-73
2022/03/04 13:30:12;;;;;;;12.73;10.18;;;14.20;49.60;;;;;;10903847;32;20058;-73
2022/03/04 13:36:15;;;;;;;18.27;11.73;;;14.20;50.10;;;;;;10903840;32;20073;-73
2022/03/04 13:42:25;;;;;;;14.15;9.43;;;14.20;49.50;;;;;;10906562;32;20053;-73
2022/03/04 13:48:27;;;;;;;16.30;11.10;;;14.10;47.70;;;;;;10941748;32;20018;-73
2022/03/04 13:54:53;;;;;;;12.75;10.07;;;14.00;47.80;;;;;;10947410;32;20058;-73
2022/03/04 14:01:05;;;;;;;13.50;8.95;;;14.00;48.70;;;;;;10949552;32;20297;-74
2022/03/04 14:07:07;;;;;;;11.30;7.85;;;14.10;47.30;;;;;;10949284;32;20022;-73
2022/03/04 14:13:11;;;;;;;9.75;6.68;;;14.10;47.60;;;;;;10949025;32;20096;-72
2022/03/04 14:19:13;;;;;;;10.05;6.40;;;14.20;46.40;;;;;;10948309;32;20035;-73
2022/03/04 14:25:16;;;;;;;12.95;6.55;;;14.30;46.90;;;;;;10948628;32;20027;-74
2022/03/04 14:31:18;;;;;;;16.73;6.65;;;14.50;46.90;;;;;;10947622;32;20026;-71
2022/03/04 14:37:20;;;;;;;12.30;7.05;;;14.60;46.50;;;;;;10940596;32;20023;-72
2022/03/04 14:43:24;;;;;;;11.85;8.68;;;14.60;46.80;;;;;;10932111;32;20367;-72
2022/03/04 14:49:27;;;;;;;9.55;6.68;;;14.60;48.00;;;;;;10946820;32;20031;-72
2022/03/04 14:55:29;;;;;;;14.40;9.30;;;14.70;47.50;;;;;;10947266;32;20433;-72
2022/03/04 15:01:31;;;;;;;13.55;9.73;;;14.90;47.70;;;;;;10943393;32;20027;-72
2022/03/04 15:07:33;;;;;;;11.73;7.68;;;14.90;47.30;;;;;;10932326;32;20027;-72
2022/03/04 15:13:35;;;;;;;12.90;9.25;;;14.70;47.90;;;;;;10946658;32;20053;-72
2022/03/04 15:19:40;;;;;;;19.48;10.50;;;14.70;47.80;;;;;;10932963;32;20046;-73
2022/03/04 15:25:43;;;;;;;14.90;7.95;;;14.50;48.10;;;;;;10945904;32;20096;-72
2022/03/04 15:31:45;;;;;;;15.02;10.65;;;14.90;48.60;;;;;;10945648;32;20035;-72
2022/03/04 15:37:47;;;;;;;15.35;10.55;;;15.50;48.50;;;;;;10945385;32;20038;-72
2022/03/04 15:43:49;;;;;;;12.82;8.70;;;16.20;48.50;;;;;;10945775;32;20081;-73
2022/03/04 15:49:51;;;;;;;17.62;10.27;;;16.80;48.70;;;;;;10945000;32;20041;-73
2022/03/04 15:55:55;;;;;;;13.68;9.13;;;17.10;48.00;;;;;;10944480;32;20069;-73
2022/03/04 16:01:57;;;;;;;16.15;6.95;;;16.80;49.30;;;;;;10940837;32;20607;-73
2022/03/04 16:07:59;;;;;;;12.65;9.40;;;16.00;50.70;;;;;;10908203;32;20071;-73
2022/03/04 16:14:02;;;;;;;11.90;8.27;;;15.90;52.10;;;;;;10892188;32;20316;-73
2022/03/04 16:20:05;;;;;;;10.52;6.93;;;15.90;52.20;;;;;;10921840;32;20392;-73
2022/03/04 16:26:10;;;;;;;9.43;6.68;;;16.10;53.10;;;;;;10896426;32;20301;-73
2022/03/04 16:32:12;;;;;;;10.13;7.62;;;15.70;53.90;;;;;;10905507;32;20031;-73
2022/03/04 16:38:14;;;;;;;11.20;6.60;;;15.40;54.70;;;;;;10904009;32;20023;-73
2022/03/04 16:44:17;;;;;;;12.75;6.22;;;15.40;55.30;;;;;;10904594;32;20023;-73
2022/03/04 16:50:19;;;;;;;10.68;6.20;;;15.20;55.90;;;;;;10914318;32;20091;-73
2022/03/04 16:56:21;;;;;;;9.65;4.53;;;14.60;56.90;;;;;;10942009;32;20355;-73
2022/03/04 17:02:27;;;;;;;9.70;6.55;;;14.20;57.80;;;;;;10942053;32;20041;-73
2022/03/04 17:08:30;;;;;;;8.75;4.50;;;13.80;58.60;;;;;;10942288;32;20054;-73
2022/03/04 17:14:32;;;;;;;10.32;6.20;;;13.70;59.10;;;;;;10940995;32;20057;-73
2022/03/04 17:20:34;;;;;;;12.02;6.60;;;13.60;59.50;;;;;;10941828;32;20351;-73
2022/03/04 17:26:42;;;;;;;8.75;5.90;;;13.50;59.70;;;;;;10940077;32;20049;-73
2022/03/04 17:32:44;;;;;;;10.25;6.70;;;13.30;60.20;;;;;;10917075;32;20039;-73
2022/03/04 17:38:46;;;;;;;16.85;12.02;;;13.20;60.70;;;;;;10906034;32;20027;-73
2022/03/04 17:44:48;;;;;;;20.58;14.77;;;13.30;60.70;;;;;;10937684;32;20049;-73
2022/03/04 17:50:50;;;;;;;19.95;14.07;;;13.20;60.50;;;;;;10940454;32;20385;-73
2022/03/04 17:56:52;;;;;;;18.67;13.40;;;13.20;60.30;;;;;;10939669;32;20027;-73
2022/03/04 18:02:55;;;;;;;18.00;12.90;;;13.10;60.70;;;;;;10940852;32;20327;-73
2022/03/04 18:08:58;;;;;;;25.77;15.57;;;13.00;61.00;;;;;;10940967;32;20027;-72
2022/03/04 18:15:00;;;;;;;21.40;14.98;;;12.90;60.80;;;;;;10939840;32;20061;-73
2022/03/04 18:21:02;;;;;;;15.80;10.82;;;12.90;60.80;;;;;;10940368;32;20395;-72
2022/03/04 18:27:04;;;;;;;17.15;11.27;;;12.80;61.10;;;;;;10904721;32;20015;-72
2022/03/04 18:33:06;;;;;;;16.20;9.73;;;12.70;61.70;;;;;;10903059;32;20028;-72
2022/03/04 18:45:43;;;;;;;15.57;9.88;;;12.40;62.50;;;;;;10909823;32;20058;-72
2022/03/04 18:51:45;;;;;;;16.15;9.70;;;12.40;62.90;;;;;;10906410;32;20057;-72
2022/03/04 18:57:49;;;;;;;21.05;16.15;;;12.20;63.30;;;;;;10938616;32;20031;-72
2022/03/04 19:03:52;;;;;;;18.67;12.85;;;12.00;63.50;;;;;;10946258;32;20046;-72
2022/03/04 19:09:55;;;;;;;18.05;11.00;;;11.70;63.30;;;;;;10946717;32;20045;-72
2022/03/04 19:15:57;;;;;;;16.27;10.55;;;11.50;63.60;;;;;;10944513;32;20049;-72
2022/03/04 19:21:59;;;;;;;13.95;10.80;;;11.40;64.30;;;;;;10932496;32;20024;-72
2022/03/04 19:28:01;;;;;;;18.10;13.40;;;11.60;64.40;;;;;;10932052;32;20007;-73
2022/03/04 19:34:04;;;;;;;18.02;13.45;;;11.70;64.80;;;;;;10945911;32;20050;-73
2022/03/04 19:40:25;;;;;;;16.12;12.25;;;11.70;64.90;;;;;;10931982;32;20037;-73
2022/03/04 19:46:28;;;;;;;18.85;13.07;;;11.80;65.30;;;;;;10945256;32;20335;-73
2022/03/04 19:52:30;;;;;;;23.92;16.23;;;11.70;65.10;;;;;;10944687;32;20389;-72
2022/03/04 19:58:32;;;;;;;18.33;15.02;;;11.70;65.60;;;;;;10943078;32;20031;-72
2022/03/04 20:04:35;;;;;;;22.80;16.87;;;11.90;65.50;;;;;;10944792;32;20391;-72
2022/03/04 20:10:39;;;;;;;21.58;16.55;;;12.20;65.30;;;;;;10941258;32;20030;-72
2022/03/04 20:16:42;;;;;;;23.42;16.52;;;12.10;65.10;;;;;;10908027;32;20323;-72
2022/03/04 20:22:45;;;;;;;25.83;17.05;;;11.80;65.80;;;;;;10906386;32;20046;-72
2022/03/04 20:28:47;;;;;;;30.42;18.45;;;11.90;65.90;;;;;;10902489;32;20042;-73
2022/03/04 20:34:50;;;;;;;27.25;18.40;;;12.00;65.80;;;;;;10905887;32;20032;-73
2022/03/04 20:40:52;;;;;;;26.62;18.52;;;11.80;66.00;;;;;;10892197;32;20414;-73
2022/03/04 20:46:54;;;;;;;30.95;23.30;;;11.80;66.20;;;;;;10891675;32;20023;-73
2022/03/04 20:52:57;;;;;;;34.42;28.27;;;11.70;66.10;;;;;;10891693;32;20046;-73
2022/03/04 20:58:59;;;;;;;26.33;21.12;;;11.80;66.70;;;;;;10905136;32;20032;-73
2022/03/04 21:05:01;;;;;;;27.37;22.77;;;11.80;66.20;;;;;;10891247;32;20037;-72
2022/03/04 21:11:14;;;;;;;25.12;21.00;;;11.80;66.10;;;;;;10891822;32;20058;-72
2022/03/04 21:17:16;;;;;;;29.98;21.27;;;11.70;66.10;;;;;;10928842;27;20035;-72
2022/03/04 21:23:19;;;;;;;28.25;20.45;;;11.50;66.70;;;;;;10942394;32;20011;-72
2022/03/04 21:29:22;;;;;;;37.03;27.62;;;11.60;66.80;;;;;;10942418;32;20023;-72
2022/03/04 21:35:25;;;;;;;32.15;23.52;;;11.40;66.80;;;;;;10942030;32;20148;-72
2022/03/04 21:41:28;;;;;;;25.12;18.85;;;11.10;67.90;;;;;;10941926;32;20327;-73
2022/03/04 21:47:30;;;;;;;27.95;20.37;;;11.00;68.40;;;;;;10941789;32;20054;-73
2022/03/04 21:53:32;;;;;;;24.27;17.75;;;11.00;68.50;;;;;;10941571;32;20045;-73
2022/03/04 21:59:35;;;;;;;24.52;17.17;;;11.00;68.40;;;;;;10941535;32;20046;-73
2022/03/04 22:05:39;;;;;;;26.50;17.42;;;10.90;68.30;;;;;;10928281;32;20015;-73
2022/03/04 22:11:41;;;;;;;23.17;18.08;;;10.80;68.30;;;;;;10942128;32;20094;-73
2022/03/04 22:17:43;;;;;;;23.10;16.55;;;10.80;68.50;;;;;;10930852;32;20045;-73
2022/03/04 22:23:46;;;;;;;17.10;13.48;;;10.90;68.70;;;;;;10910718;32;20019;-73
2022/03/04 22:29:49;;;;;;;19.08;11.45;;;10.90;68.80;;;;;;10910701;32;20031;-73
2022/03/04 22:35:51;;;;;;;12.02;8.52;;;11.00;68.90;;;;;;10910373;32;20077;-73
2022/03/04 22:41:55;;;;;;;16.65;10.98;;;11.00;68.90;;;;;;10909677;32;20027;-73
2022/03/04 22:47:58;;;;;;;21.05;10.38;;;10.70;68.40;;;;;;10933847;32;20023;-73
2022/03/04 22:54:00;;;;;;;24.73;10.52;;;10.50;67.90;;;;;;10933972;32;20335;-73
2022/03/04 23:00:05;;;;;;;11.90;7.57;;;10.40;68.10;;;;;;10947420;32;20030;-73
2022/03/04 23:12:28;;;;;;;12.37;7.97;;;10.40;68.60;;;;;;10946993;32;20339;-74
2022/03/04 23:18:30;;;;;;;13.20;7.65;;;10.30;68.70;;;;;;10946561;32;20049;-73
2022/03/04 23:24:32;;;;;;;19.52;8.13;;;10.30;68.90;;;;;;10945737;32;20041;-73
2022/03/04 23:30:34;;;;;;;14.07;8.85;;;10.30;69.30;;;;;;10946147;32;20041;-73
2022/03/04 23:36:37;;;;;;;14.77;9.35;;;10.20;69.10;;;;;;10945924;32;20026;-73
2022/03/04 23:42:40;;;;;;;16.23;8.48;;;10.20;69.20;;;;;;10932539;32;20019;-74
2022/03/04 23:48:43;;;;;;;13.10;8.20;;;10.20;69.20;;;;;;10932158;32;20015;-73
2022/03/04 23:54:45;;;;;;;17.70;11.68;;;10.20;69.30;;;;;;10945387;32;20049;-73
